West Lorne, Canada
Current Conditions -  °F | °C
As of 4:00 PM on Saturday 25 Oct 2014 (Local Time) from CYCK Reporting Station
Clear Clear  
Wind Chill: 66°   Ceiling: Unl
Heat Index: 66°   Visibility: 9mi
Dew Point: 52°   Wind: 20mph
Humidity: 60%   Direction: 290°WNW
Pressure: 29.72"   Gusts: 26mph
Location:  42.6°N, 81.6°W
Report Text: CYCK 252000Z AUTO 29017G23KT 9SM CLR 19/11 A2972 RMK SLP064 DENSITY ALT 1400FT
Loading
Personal Weather Stations






























Interactive Weather Map
Tropical Storm Tracking
New forecast layout! Learn more

10-Day Weather Forecast

Advertisements
Track Severe Weather on mobile